Aérodrome :
LOGIN :

S'inscrire | Disclaimer

   EN    FR    IT 

 










Légende :    VFR   VFR Marginal   IFR   IFR Intensif   IFR Très Intensif
Visi : 
Plafond : 
>= 8 km
>= 3000ft
5 à 8 km
1000 à 3000 ft
1500m à 5 km
500 à 1000 ft
800 à 1500m
200 à 500 ft
< 800m
< 200 ft
Symboles :   Orages  Brouillard  Fortes neiges  Fortes précipitations  Vent > 20 kt
SIGMETs :   Divers  Orages  Givrage  Turbulence  Onde Orograph.  Cendres Volcan.






- Altitude de l'aérodrome : 27 ft
- Code IATA : PMI


LEPA - Palma de Mallorca

DERNIER METAR :
  • 180030Z 29007KT 9999 FEW030 BKN050 14/10 Q1007 NOSIG

METARs EXPIRÉS :
  • 180000Z 27010KT 9999 FEW030 SCT040 BKN055 15/10 Q1008 NOSIG
  • 172330Z 28008KT 250V340 9999 FEW030 SCT040 BKN055 15/10 Q1008 NOSIG
  • 172300Z 29007KT 230V320 9999 FEW030 SCT040 BKN050 13/09 Q1008 NOSIG
  • 172230Z 24010KT 9999 FEW030 SCT040 16/10 Q1008 NOSIG
  • 172200Z 24010KT 9999 FEW030 SCT040 15/09 Q1008 NOSIG

TAF AMD TAF LEPA
Valide du 18 à 00h jusqu'au 19 à 00h UTC


172334Z 1800/1824 26009KT 9999 FEW025 SCT030 TX15/1813Z TN06/1806Z
TEMPO 1800/1818 2000 SHRA SCT025TCU BKN030
BECMG 1803/1806 32008KT
PROB40
TEMPO 1813/1818 VRB05G20KT 3000 TSRA SCT025CB



MET'MAP, la Météo Aéronautique d'un coup d'oeil ! - Copyright ORBIFLY Décembre 2007 - Disclaimer

ORBIFLY MET'MAP TEAM :

Programmation & Développement : Alexandra Zaïnal
Conception & Développement : Baudouin d'Aumeries
Co-Programmation & Développement : Marc-Olivier Méhu
Soutien technique & logistique : Manuel Goepfert

Contact : metmap@orbifly.com




SOURCES & CREDITS :

   NOAA